Time;durP1;ratioP1;P1;durP2;ratioP2;P2;SDS_P1;SDS_P2;PMS_P1;PMS_P2;Temp;Humidity;BMP_temperature;BMP_pressure;BME280_temperature;BME280_humidity;BME280_pressure;Samples;Min_cycle;Max_cycle;Signal;HPM_P1;HPM_P2
2021/01/11 00:01:01;;;;;;;8.98;5.00;;;18.20;49.90;;;;;;10510716;28;20044;-59
2021/01/11 00:06:02;;;;;;;9.38;6.20;;;18.20;49.80;;;;;;10509343;28;20515;-59
2021/01/11 00:11:11;;;;;;;9.63;5.53;;;18.20;49.80;;;;;;10501306;28;20051;-60
2021/01/11 00:16:12;;;;;;;8.55;4.80;;;18.20;49.80;;;;;;10507392;28;20159;-60
2021/01/11 00:21:16;;;;;;;9.55;5.57;;;18.20;49.80;;;;;;10507071;28;20054;-59
2021/01/11 00:26:19;;;;;;;12.32;5.82;;;18.20;49.80;;;;;;10504827;28;20531;-57
2021/01/11 00:31:24;;;;;;;9.25;5.50;;;18.20;49.70;;;;;;10507169;28;20063;-60
2021/01/11 00:36:25;;;;;;;7.47;4.88;;;18.20;49.70;;;;;;10505543;28;20050;-60
2021/01/11 00:41:28;;;;;;;7.10;5.15;;;18.20;49.70;;;;;;10510669;28;20131;-59
2021/01/11 00:46:30;;;;;;;8.43;5.20;;;18.20;49.70;;;;;;10505993;28;20573;-59
2021/01/11 00:51:31;;;;;;;8.15;5.38;;;18.20;49.70;;;;;;10507239;28;20315;-59
2021/01/11 00:56:34;;;;;;;7.50;5.40;;;18.10;49.60;;;;;;10504514;28;20050;-57
2021/01/11 01:01:35;;;;;;;;;;;18.20;49.70;;;;;;10504660;28;20044;-58
2021/01/11 01:06:36;;;;;;;7.18;4.60;;;18.20;49.70;;;;;;10502256;28;19963;-59
2021/01/11 01:11:38;;;;;;;7.10;4.53;;;18.10;49.70;;;;;;10501115;28;20051;-60
2021/01/11 01:16:40;;;;;;;4.60;3.92;;;18.10;49.70;;;;;;10502944;28;20049;-59
2021/01/11 01:21:41;;;;;;;5.65;3.95;;;18.10;49.70;;;;;;10507841;28;20464;-59
2021/01/11 01:26:43;;;;;;;7.35;4.22;;;18.10;49.70;;;;;;10503395;28;20044;-60
2021/01/11 01:31:44;;;;;;;6.28;4.00;;;18.10;49.70;;;;;;10511492;28;20120;-59
2021/01/11 01:36:46;;;;;;;7.30;4.18;;;18.10;49.70;;;;;;10510290;28;20135;-60
2021/01/11 01:41:48;;;;;;;6.43;4.47;;;18.10;49.70;;;;;;10513399;28;20110;-60
2021/01/11 01:46:50;;;;;;;6.97;5.22;;;18.10;49.70;;;;;;10514701;28;20032;-60
2021/01/11 01:51:52;;;;;;;8.10;4.72;;;18.10;49.80;;;;;;10516326;28;20546;-60
2021/01/11 01:56:54;;;;;;;6.70;4.78;;;18.00;49.70;;;;;;10511226;28;20075;-52
2021/01/11 02:01:56;;;;;;;6.95;4.82;;;18.10;49.70;;;;;;10509652;28;20464;-59
2021/01/11 02:07:04;;;;;;;8.17;5.40;;;18.10;49.70;;;;;;10504695;28;20050;-59
2021/01/11 02:12:13;;;;;;;5.90;4.78;;;18.10;49.70;;;;;;10514498;28;20094;-59
2021/01/11 02:17:17;;;;;;;7.03;4.70;;;18.00;49.60;;;;;;10510901;28;20052;-60
2021/01/11 02:22:27;;;;;;;6.10;4.53;;;18.00;49.60;;;;;;10510100;28;20516;-57
2021/01/11 02:27:38;;;;;;;6.65;5.07;;;18.00;49.60;;;;;;10507069;28;20044;-60
2021/01/11 02:32:49;;;;;;;7.78;4.70;;;18.00;49.70;;;;;;10512195;28;20437;-58
2021/01/11 02:37:51;;;;;;;5.43;4.30;;;18.00;49.70;;;;;;10511762;28;20052;-59
2021/01/11 02:42:53;;;;;;;7.30;5.13;;;18.00;49.70;;;;;;10513114;28;20480;-60
2021/01/11 02:48:07;;;;;;;7.25;4.80;;;18.00;49.60;;;;;;10512124;28;20151;-59
2021/01/11 02:53:21;;;;;;;6.68;4.35;;;18.00;49.70;;;;;;10511018;28;20054;-54
2021/01/11 02:58:44;;;;;;;5.95;3.90;;;18.00;49.70;;;;;;10507763;28;20117;-60
2021/01/11 03:03:48;;;;;;;6.68;4.80;;;18.00;49.70;;;;;;10509139;28;20140;-60
2021/01/11 03:08:49;;;;;;;6.55;4.28;;;18.00;49.70;;;;;;10510349;28;20079;-59
2021/01/11 03:13:51;;;;;;;6.50;4.50;;;17.90;49.60;;;;;;10507675;28;20044;-59
2021/01/11 03:18:53;;;;;;;5.28;3.97;;;17.90;49.60;;;;;;10511837;28;20052;-58
2021/01/11 03:23:54;;;;;;;5.25;3.90;;;17.90;49.60;;;;;;10512667;28;20564;-58
2021/01/11 03:28:56;;;;;;;4.43;3.92;;;17.90;49.60;;;;;;10511472;28;20097;-59
2021/01/11 03:33:59;;;;;;;5.00;3.95;;;17.90;49.70;;;;;;10509774;28;20040;-59
2021/01/11 03:39:00;;;;;;;4.78;3.88;;;17.90;49.70;;;;;;10508666;28;20605;-59
2021/01/11 03:44:01;;;;;;;4.72;3.58;;;17.90;49.70;;;;;;10507500;28;20100;-59
2021/01/11 03:49:04;;;;;;;4.43;3.40;;;17.90;49.60;;;;;;10507934;28;20177;-58
2021/01/11 03:54:05;;;;;;;4.57;2.78;;;17.90;49.50;;;;;;10509424;28;20040;-60
2021/01/11 03:59:06;;;;;;;4.50;2.70;;;17.90;49.50;;;;;;10505353;28;20659;-59
2021/01/11 04:04:08;;;;;;;3.60;2.80;;;17.80;49.40;;;;;;10507581;28;20581;-59
2021/01/11 04:09:11;;;;;;;3.55;2.50;;;17.80;49.40;;;;;;10509742;28;20048;-60
2021/01/11 04:14:12;;;;;;;3.22;2.33;;;17.80;49.30;;;;;;10506283;28;20083;-60
2021/01/11 04:19:14;;;;;;;3.42;2.00;;;17.80;49.30;;;;;;10509375;28;20052;-59
2021/01/11 04:24:15;;;;;;;3.78;2.65;;;17.80;49.30;;;;;;10508745;28;20108;-60
2021/01/11 04:29:17;;;;;;;3.38;2.17;;;17.80;49.30;;;;;;10509411;28;20059;-60
2021/01/11 04:34:19;;;;;;;3.33;2.20;;;17.80;49.30;;;;;;10512202;28;20052;-60
2021/01/11 04:39:20;;;;;;;2.50;2.08;;;17.70;49.20;;;;;;10518219;28;20126;-57
2021/01/11 04:44:22;;;;;;;4.65;2.05;;;17.70;49.20;;;;;;10513855;28;20047;-61
2021/01/11 04:49:25;;;;;;;2.77;1.90;;;17.60;49.20;;;;;;10513296;28;20138;-60
2021/01/11 04:54:30;;;;;;;3.20;1.98;;;17.60;49.20;;;;;;10504691;28;20063;-57
2021/01/11 04:59:34;;;;;;;3.22;1.63;;;17.60;49.20;;;;;;10507031;28;20047;-60
2021/01/11 05:04:36;;;;;;;3.90;1.80;;;17.60;49.20;;;;;;10507709;28;20097;-60
2021/01/11 05:09:38;;;;;;;3.72;1.92;;;17.60;49.20;;;;;;10505120;28;20063;-59
2021/01/11 05:14:40;;;;;;;4.50;2.50;;;17.60;49.20;;;;;;10511646;28;20040;-60
2021/01/11 05:19:42;;;;;;;2.80;2.40;;;17.60;49.20;;;;;;10517128;28;20130;-59
2021/01/11 05:24:45;;;;;;;2.90;2.28;;;17.60;49.20;;;;;;10513306;28;20040;-60
2021/01/11 05:29:47;;;;;;;3.45;2.10;;;17.60;49.20;;;;;;10514823;28;20043;-57
2021/01/11 05:34:51;;;;;;;4.13;2.10;;;17.60;49.20;;;;;;10508098;28;20059;-60
2021/01/11 05:40:03;;;;;;;3.17;1.90;;;17.50;49.20;;;;;;10510288;28;20055;-58
2021/01/11 05:45:16;;;;;;;3.00;1.90;;;17.50;49.20;;;;;;10513353;28;20541;-56
2021/01/11 05:50:18;;;;;;;;;;;17.50;49.20;;;;;;10517116;28;20136;-60
2021/01/11 05:55:20;;;;;;;3.20;1.90;;;17.50;49.20;;;;;;10512245;28;19930;-57
2021/01/11 06:00:23;;;;;;;2.70;1.80;;;17.50;49.30;;;;;;10510459;28;20052;-60
2021/01/11 06:05:26;;;;;;;3.42;2.30;;;17.50;49.30;;;;;;10514422;28;20135;-60
2021/01/11 06:10:28;;;;;;;4.07;2.67;;;17.50;49.30;;;;;;10738941;22;20059;-59
2021/01/11 06:15:29;;;;;;;3.20;2.30;;;17.50;49.20;;;;;;10551707;28;20171;-60
2021/01/11 06:20:32;;;;;;;3.72;2.03;;;17.50;49.20;;;;;;10550173;28;20044;-61
2021/01/11 06:25:34;;;;;;;;;;;17.50;49.30;;;;;;10539887;28;20102;-57
2021/01/11 06:30:37;;;;;;;6.10;2.40;;;17.50;49.30;;;;;;10548378;28;20064;-59
2021/01/11 06:35:41;;;;;;;3.63;1.90;;;17.50;49.30;;;;;;10550765;28;20134;-59
2021/01/11 06:40:43;;;;;;;4.22;2.05;;;17.50;49.40;;;;;;10548143;28;20446;-61
2021/01/11 06:45:46;;;;;;;3.57;1.60;;;17.50;49.40;;;;;;10549117;28;20048;-59
2021/01/11 06:50:49;;;;;;;3.53;1.98;;;17.50;49.40;;;;;;10544720;28;20067;-59
2021/01/11 06:56:04;;;;;;;3.35;1.85;;;17.50;49.40;;;;;;10543636;28;20050;-61
2021/01/11 07:01:07;;;;;;;3.50;2.20;;;17.50;49.30;;;;;;10550823;28;20487;-57
2021/01/11 07:06:33;;;;;;;4.15;1.90;;;17.50;49.30;;;;;;10545449;28;20055;-61
2021/01/11 07:11:36;;;;;;;2.95;2.10;;;17.60;49.40;;;;;;10549072;28;20381;-60
2021/01/11 07:16:40;;;;;;;4.82;2.25;;;17.50;49.40;;;;;;10550363;28;20639;-57
2021/01/11 07:21:42;;;;;;;2.97;2.00;;;17.50;49.30;;;;;;10536802;28;20046;-62
2021/01/11 07:26:44;;;;;;;3.80;1.83;;;17.50;49.40;;;;;;10533768;28;20545;-61
2021/01/11 07:31:47;;;;;;;2.55;1.65;;;17.50;49.40;;;;;;10534138;28;20039;-60
2021/01/11 07:36:50;;;;;;;2.70;1.90;;;17.50;49.40;;;;;;10548231;28;20067;-62
2021/01/11 07:41:54;;;;;;;3.97;1.60;;;17.50;49.50;;;;;;10541672;28;20637;-59
2021/01/11 07:46:57;;;;;;;3.22;1.90;;;17.40;49.40;;;;;;10528351;28;20567;-59
2021/01/11 07:52:05;;;;;;;4.35;1.80;;;17.40;49.40;;;;;;10545566;28;20105;-58
2021/01/11 07:57:09;;;;;;;2.55;1.75;;;17.40;49.40;;;;;;10549151;28;20568;-58
2021/01/11 08:02:12;;;;;;;4.55;2.10;;;17.40;49.50;;;;;;10549903;28;20051;-59
2021/01/11 08:07:14;;;;;;;4.50;1.65;;;17.40;49.50;;;;;;10543072;28;20088;-59
2021/01/11 08:12:17;;;;;;;6.13;2.05;;;17.40;49.50;;;;;;10549652;28;20048;-58
2021/01/11 08:17:19;;;;;;;5.72;2.17;;;17.40;49.60;;;;;;10546150;28;20075;-59
2021/01/11 08:22:22;;;;;;;2.70;1.98;;;17.40;49.60;;;;;;10548180;28;20126;-57
2021/01/11 08:27:30;;;;;;;6.15;2.70;;;17.30;49.60;;;;;;10548542;28;20047;-59
2021/01/11 08:32:32;;;;;;;4.47;2.63;;;17.30;49.70;;;;;;10549689;28;20043;-59
2021/01/11 08:37:35;;;;;;;5.57;2.50;;;17.30;49.70;;;;;;10544619;28;20126;-59
2021/01/11 08:42:38;;;;;;;4.80;2.75;;;17.30;49.80;;;;;;10550121;28;20384;-58
2021/01/11 08:47:39;;;;;;;5.00;2.60;;;17.30;49.80;;;;;;10545989;28;20104;-59
2021/01/11 08:52:41;;;;;;;3.83;2.92;;;17.20;50.00;;;;;;10557190;28;20436;-60
2021/01/11 08:57:55;;;;;;;4.95;2.75;;;17.20;50.00;;;;;;10555481;28;20051;-58
2021/01/11 09:02:56;;;;;;;4.75;2.28;;;17.20;50.20;;;;;;10554557;28;20051;-60
2021/01/11 09:08:15;;;;;;;2.38;1.70;;;17.10;50.10;;;;;;10549851;28;20052;-60
2021/01/11 09:13:17;;;;;;;3.78;1.63;;;17.10;50.20;;;;;;10555884;28;20055;-59
2021/01/11 09:18:18;;;;;;;4.27;2.00;;;17.10;50.20;;;;;;10555632;28;20036;-59
2021/01/11 09:23:20;;;;;;;2.92;1.65;;;17.10;50.30;;;;;;10553124;28;20112;-60
2021/01/11 09:28:22;;;;;;;3.00;1.23;;;17.00;50.30;;;;;;10553717;28;20044;-59
2021/01/11 09:33:23;;;;;;;7.00;2.40;;;17.00;50.40;;;;;;10553963;28;20143;-60
2021/01/11 09:38:25;;;;;;;8.05;2.65;;;17.00;50.50;;;;;;10557402;28;20035;-60
2021/01/11 09:43:26;;;;;;;5.80;2.88;;;17.00;50.60;;;;;;10553081;28;20398;-51
2021/01/11 09:48:28;;;;;;;6.95;3.92;;;17.00;50.60;;;;;;10549128;28;20066;-60
2021/01/11 09:53:30;;;;;;;7.30;3.97;;;17.00;50.60;;;;;;10547983;28;20505;-60
2021/01/11 09:58:32;;;;;;;8.77;3.92;;;17.00;50.60;;;;;;10553409;28;20135;-57
2021/01/11 10:03:33;;;;;;;9.80;4.72;;;17.00;50.60;;;;;;10550410;28;20097;-60
2021/01/11 10:08:35;;;;;;;9.10;4.35;;;17.00;50.60;;;;;;10555433;28;20540;-58
2021/01/11 10:13:37;;;;;;;7.47;3.70;;;17.00;50.60;;;;;;10554772;28;20048;-57
2021/01/11 10:18:38;;;;;;;11.15;4.70;;;17.00;50.70;;;;;;10549758;28;20134;-59
2021/01/11 10:23:40;;;;;;;12.05;5.22;;;17.00;50.70;;;;;;10545074;28;20487;-59
2021/01/11 10:28:41;;;;;;;8.10;4.15;;;17.00;50.80;;;;;;10550567;28;20055;-54
2021/01/11 10:33:45;;;;;;;9.00;4.22;;;17.00;50.90;;;;;;10547094;28;20050;-56
2021/01/11 10:38:47;;;;;;;15.30;7.40;;;17.00;51.00;;;;;;10548903;28;20484;-53
2021/01/11 10:43:49;;;;;;;11.18;4.47;;;17.00;51.00;;;;;;10549687;28;20048;-59
2021/01/11 10:48:51;;;;;;;16.13;5.77;;;17.00;51.00;;;;;;10547506;28;20048;-56
2021/01/11 10:53:53;;;;;;;10.00;4.50;;;17.00;51.00;;;;;;10549886;28;20052;-57
2021/01/11 10:58:54;;;;;;;12.02;4.90;;;17.00;51.00;;;;;;10546224;28;20122;-53
2021/01/11 11:03:55;;;;;;;10.45;5.53;;;17.00;51.00;;;;;;10553139;28;20049;-55
2021/01/11 11:08:58;;;;;;;16.30;6.05;;;17.10;51.10;;;;;;10549676;28;20507;-58
2021/01/11 11:13:59;;;;;;;8.52;4.43;;;17.10;51.10;;;;;;10547528;28;20118;-60
2021/01/11 11:19:00;;;;;;;10.77;5.28;;;17.10;51.10;;;;;;10551429;28;20138;-57
2021/01/11 11:24:02;;;;;;;10.18;5.85;;;17.10;51.00;;;;;;10553920;28;20477;-49
2021/01/11 11:29:04;;;;;;;14.07;6.82;;;17.10;51.00;;;;;;10548933;28;20043;-62
2021/01/11 11:34:05;;;;;;;12.27;6.00;;;17.10;51.00;;;;;;10546932;28;20056;-57
2021/01/11 11:39:07;;;;;;;11.20;5.97;;;17.10;51.00;;;;;;10547268;28;20678;-57
2021/01/11 11:44:08;;;;;;;12.27;6.15;;;17.00;50.90;;;;;;10550040;28;20043;-61
2021/01/11 11:49:10;;;;;;;14.75;6.90;;;17.10;51.00;;;;;;10546637;28;20058;-60
2021/01/11 11:54:12;;;;;;;14.43;6.95;;;17.00;51.00;;;;;;10549074;28;20474;-56
2021/01/11 11:59:13;;;;;;;15.55;7.38;;;17.00;51.10;;;;;;10544749;28;20126;-56
2021/01/11 12:04:16;;;;;;;13.45;7.18;;;17.00;51.20;;;;;;10544775;28;20044;-58
2021/01/11 12:09:18;;;;;;;12.07;5.90;;;16.90;51.30;;;;;;10546675;28;20058;-54
2021/01/11 12:14:19;;;;;;;14.90;6.25;;;16.90;51.40;;;;;;10542214;28;20134;-57
2021/01/11 12:19:21;;;;;;;15.63;6.80;;;17.00;51.40;;;;;;10545623;28;20051;-57
2021/01/11 12:24:23;;;;;;;11.82;4.65;;;17.00;51.40;;;;;;10549232;28;20052;-54
2021/01/11 12:29:24;;;;;;;11.23;6.40;;;17.00;51.20;;;;;;10552174;28;20497;-57
2021/01/11 12:34:26;;;;;;;9.68;5.40;;;17.10;51.20;;;;;;10545676;28;20115;-57
2021/01/11 12:39:28;;;;;;;9.05;5.25;;;17.10;51.20;;;;;;10546741;28;20910;-53
2021/01/11 12:44:30;;;;;;;;;;;17.20;51.20;;;;;;10546127;28;20055;-57
2021/01/11 12:49:31;;;;;;;12.93;5.35;;;17.20;51.00;;;;;;10546958;28;19920;-53
2021/01/11 12:54:33;;;;;;;8.50;4.63;;;17.20;51.00;;;;;;10550297;28;20594;-55
2021/01/11 12:59:35;;;;;;;9.15;4.65;;;17.30;51.00;;;;;;10546546;28;20051;-57
2021/01/11 13:04:37;;;;;;;9.13;5.17;;;17.30;51.00;;;;;;10549572;28;20077;-58
2021/01/11 13:09:39;;;;;;;12.30;5.38;;;17.30;51.00;;;;;;10545275;28;20528;-57
2021/01/11 13:14:41;;;;;;;12.80;5.88;;;17.30;50.90;;;;;;10544056;28;20043;-57
2021/01/11 13:19:42;;;;;;;13.75;5.18;;;17.40;50.90;;;;;;10544124;28;20040;-54
2021/01/11 13:24:45;;;;;;;18.58;7.20;;;17.40;50.90;;;;;;10547486;28;20126;-60
2021/01/11 13:29:46;;;;;;;10.65;5.10;;;17.40;50.90;;;;;;10544265;28;20178;-55
2021/01/11 13:34:47;;;;;;;10.10;5.03;;;17.40;50.90;;;;;;10548282;28;20062;-58
2021/01/11 13:39:50;;;;;;;8.73;4.72;;;17.40;50.90;;;;;;10553531;28;20071;-57
2021/01/11 13:44:51;;;;;;;12.93;6.50;;;17.50;51.00;;;;;;10554691;28;20127;-55
2021/01/11 13:49:53;;;;;;;10.13;5.00;;;17.40;50.90;;;;;;10552278;28;20052;-61
2021/01/11 13:54:56;;;;;;;9.13;4.82;;;17.40;51.00;;;;;;10548601;28;20048;-60
2021/01/11 13:59:57;;;;;;;12.90;5.15;;;17.40;51.00;;;;;;10549012;28;20054;-52
2021/01/11 14:04:59;;;;;;;10.02;4.68;;;17.40;51.00;;;;;;10548403;28;20444;-63
2021/01/11 14:10:02;;;;;;;8.67;4.87;;;17.40;51.00;;;;;;10550921;28;20100;-60
2021/01/11 14:15:04;;;;;;;15.70;6.50;;;17.50;51.00;;;;;;10545753;28;20492;-61
2021/01/11 14:20:06;;;;;;;14.57;6.88;;;17.50;51.10;;;;;;10546743;28;20126;-60
2021/01/11 14:25:09;;;;;;;;;;;17.50;51.10;;;;;;10551735;28;20039;-52
2021/01/11 14:30:11;;;;;;;13.50;5.43;;;17.50;51.10;;;;;;10547197;28;19946;-58
2021/01/11 14:35:12;;;;;;;12.83;6.43;;;17.50;51.10;;;;;;10548623;28;20083;-60
2021/01/11 14:40:15;;;;;;;9.18;5.00;;;17.50;51.00;;;;;;10550616;28;20573;-55
2021/01/11 14:45:16;;;;;;;12.07;5.03;;;17.40;51.00;;;;;;10550334;28;20138;-60
2021/01/11 14:50:18;;;;;;;9.38;3.67;;;17.40;51.00;;;;;;10552196;28;20150;-59
2021/01/11 14:55:20;;;;;;;13.43;5.55;;;17.40;50.90;;;;;;10548868;28;20048;-60
2021/01/11 15:00:22;;;;;;;12.90;5.60;;;17.50;51.00;;;;;;10541939;28;20046;-59
2021/01/11 15:05:23;;;;;;;12.85;5.20;;;17.50;50.90;;;;;;10546319;28;20039;-62
2021/01/11 15:10:25;;;;;;;11.68;6.32;;;17.40;50.90;;;;;;10549529;28;20414;-60
2021/01/11 15:15:27;;;;;;;15.13;6.82;;;17.50;50.90;;;;;;10545205;28;20044;-60
2021/01/11 15:20:28;;;;;;;16.00;7.43;;;17.50;50.90;;;;;;10545773;28;20908;-59
2021/01/11 15:25:30;;;;;;;17.42;7.80;;;17.50;50.90;;;;;;10548613;28;20131;-56
2021/01/11 15:30:32;;;;;;;15.82;7.53;;;17.50;50.90;;;;;;10543501;28;20139;-57
2021/01/11 15:35:33;;;;;;;10.98;6.00;;;17.60;51.00;;;;;;10547871;28;20459;-58
2021/01/11 15:40:35;;;;;;;8.95;4.75;;;17.60;51.10;;;;;;10548657;28;20039;-58
2021/01/11 15:45:36;;;;;;;17.08;6.90;;;17.60;51.10;;;;;;10545360;28;20058;-55
2021/01/11 15:50:38;;;;;;;14.27;6.20;;;17.60;51.10;;;;;;10542769;28;20446;-57
2021/01/11 15:55:40;;;;;;;11.23;4.07;;;17.60;51.10;;;;;;10544500;28;20051;-57
2021/01/11 16:00:41;;;;;;;14.20;5.95;;;17.60;51.10;;;;;;10547985;28;20134;-57
2021/01/11 16:05:42;;;;;;;10.50;5.15;;;17.60;51.10;;;;;;10546277;28;20050;-57
2021/01/11 16:10:44;;;;;;;11.95;5.15;;;17.60;51.10;;;;;;10543726;28;20054;-56
2021/01/11 16:15:46;;;;;;;9.73;4.55;;;17.60;51.00;;;;;;10547134;28;20061;-55
2021/01/11 16:26:08;;;;;;;10.68;4.43;;;17.60;50.90;;;;;;10627890;22;20960;-57
2021/01/11 16:31:09;;;;;;;9.27;3.90;;;17.60;50.90;;;;;;10462202;28;20059;-56
2021/01/11 16:36:10;;;;;;;10.90;4.85;;;17.60;50.90;;;;;;10461492;28;20109;-57
2021/01/11 16:41:20;;;;;;;12.57;5.68;;;17.60;50.90;;;;;;10459530;28;20614;-58
2021/01/11 16:46:22;;;;;;;11.90;4.70;;;17.60;50.90;;;;;;10459575;28;20106;-57
2021/01/11 16:51:26;;;;;;;10.50;4.57;;;17.60;50.90;;;;;;10458987;28;20524;-57
2021/01/11 16:56:29;;;;;;;12.60;5.75;;;17.70;50.90;;;;;;10458102;28;20188;-55
2021/01/11 17:01:33;;;;;;;13.55;5.03;;;17.70;50.90;;;;;;10460705;28;20045;-57
2021/01/11 17:06:34;;;;;;;14.85;7.18;;;17.70;50.90;;;;;;10459946;28;20044;-55
2021/01/11 17:11:37;;;;;;;14.23;5.60;;;17.70;50.80;;;;;;10463629;28;20047;-57
2021/01/11 17:16:38;;;;;;;6.95;3.33;;;17.70;50.90;;;;;;10467838;28;20076;-57
2021/01/11 17:21:39;;;;;;;8.15;2.83;;;17.60;50.90;;;;;;10466641;28;20044;-54
2021/01/11 17:26:42;;;;;;;7.43;2.20;;;17.60;50.90;;;;;;10465420;28;20052;-51
2021/01/11 17:31:43;;;;;;;6.45;2.17;;;17.60;50.90;;;;;;10467970;28;20079;-57
2021/01/11 17:36:45;;;;;;;6.20;1.70;;;17.60;51.00;;;;;;10464619;28;20069;-56
2021/01/11 17:41:47;;;;;;;6.15;2.03;;;17.60;51.10;;;;;;10467433;28;20151;-56
2021/01/11 17:46:48;;;;;;;8.65;2.10;;;17.60;51.10;;;;;;10468260;28;20103;-57
2021/01/11 17:51:50;;;;;;;5.80;2.10;;;17.60;51.20;;;;;;10465446;28;20490;-56
2021/01/11 17:56:52;;;;;;;9.57;3.40;;;17.60;51.30;;;;;;10466514;28;20052;-55
2021/01/11 18:01:53;;;;;;;8.73;3.22;;;17.70;51.40;;;;;;10465789;28;20074;-56
2021/01/11 18:06:54;;;;;;;11.50;3.17;;;17.60;51.50;;;;;;10463239;28;20059;-53
2021/01/11 18:11:56;;;;;;;10.70;3.70;;;17.60;51.60;;;;;;10463966;28;20059;-55
2021/01/11 18:16:58;;;;;;;19.65;4.30;;;17.60;51.70;;;;;;10466050;28;20084;-56
2021/01/11 18:21:59;;;;;;;9.80;4.60;;;17.60;51.80;;;;;;10463315;28;20044;-59
2021/01/11 18:27:01;;;;;;;7.15;2.45;;;17.60;51.90;;;;;;10460322;28;20393;-58
2021/01/11 18:32:03;;;;;;;7.43;2.90;;;17.60;52.00;;;;;;10464144;28;20060;-56
2021/01/11 18:37:04;;;;;;;12.88;3.55;;;17.60;52.10;;;;;;10463710;28;20582;-58
2021/01/11 18:42:06;;;;;;;11.32;4.32;;;17.60;52.10;;;;;;10462707;28;20512;-59
2021/01/11 18:47:08;;;;;;;10.52;4.05;;;17.60;52.30;;;;;;10462876;28;20139;-59
2021/01/11 18:52:09;;;;;;;16.90;5.38;;;17.60;52.40;;;;;;10464268;28;20053;-57
2021/01/11 18:57:11;;;;;;;15.45;6.75;;;17.50;52.50;;;;;;10464696;28;20060;-58
2021/01/11 19:02:13;;;;;;;17.40;6.85;;;17.50;52.60;;;;;;10465759;28;20048;-58
2021/01/11 19:07:16;;;;;;;14.75;6.13;;;17.50;52.60;;;;;;10461713;28;20526;-60
2021/01/11 19:12:18;;;;;;;16.27;6.63;;;17.60;52.80;;;;;;10464592;28;20492;-58
2021/01/11 19:17:19;;;;;;;15.02;6.90;;;17.50;52.90;;;;;;10465333;28;20099;-60
2021/01/11 19:22:21;;;;;;;14.52;5.60;;;17.60;52.90;;;;;;10462194;28;20516;-60
2021/01/11 19:27:23;;;;;;;13.85;4.43;;;17.50;52.90;;;;;;10464162;28;20166;-54
2021/01/11 19:32:24;;;;;;;10.65;3.20;;;17.60;53.20;;;;;;10462686;28;20174;-60
2021/01/11 19:37:26;;;;;;;9.57;2.83;;;17.60;53.10;;;;;;10461239;28;20122;-59
2021/01/11 19:42:28;;;;;;;8.15;3.05;;;17.60;53.10;;;;;;10463527;28;20087;-58
2021/01/11 19:47:29;;;;;;;11.15;3.28;;;17.60;53.20;;;;;;10462509;28;20079;-60
2021/01/11 19:52:31;;;;;;;7.20;2.73;;;17.60;53.20;;;;;;10463385;28;20052;-55
2021/01/11 19:57:55;;;;;;;13.77;5.00;;;17.60;53.20;;;;;;10462144;28;20049;-59
2021/01/11 20:02:57;;;;;;;14.88;4.25;;;17.60;53.30;;;;;;10460076;28;20040;-56
2021/01/11 20:08:01;;;;;;;12.88;5.53;;;17.50;53.30;;;;;;10464374;28;20048;-55
2021/01/11 20:13:03;;;;;;;14.15;5.63;;;17.50;53.40;;;;;;10458299;28;20093;-56
2021/01/11 20:18:04;;;;;;;13.73;5.97;;;17.50;53.40;;;;;;10455024;28;20561;-58
2021/01/11 20:23:08;;;;;;;14.07;6.03;;;17.50;53.40;;;;;;10457853;28;20648;-58
2021/01/11 20:28:10;;;;;;;19.42;6.80;;;17.50;53.40;;;;;;10459646;28;20494;-58
2021/01/11 20:33:11;;;;;;;16.15;7.20;;;17.50;53.40;;;;;;10457683;28;20056;-54
2021/01/11 20:38:12;;;;;;;11.45;6.07;;;17.50;53.40;;;;;;10456804;28;20048;-58
2021/01/11 20:43:18;;;;;;;17.42;6.40;;;17.40;53.40;;;;;;10460991;28;20041;-57
2021/01/11 20:48:19;;;;;;;15.70;7.38;;;17.40;53.30;;;;;;10466320;28;20127;-57
2021/01/11 20:53:20;;;;;;;22.27;5.97;;;17.40;53.30;;;;;;10468432;28;20052;-58
2021/01/11 20:58:23;;;;;;;18.55;7.20;;;17.40;53.30;;;;;;10467702;28;20071;-58
2021/01/11 21:03:25;;;;;;;12.10;4.97;;;17.40;53.40;;;;;;10471126;28;20076;-58
2021/01/11 21:08:26;;;;;;;13.18;4.88;;;17.40;53.30;;;;;;10465326;28;20045;-57
2021/01/11 21:13:28;;;;;;;12.75;5.22;;;17.40;53.30;;;;;;10466281;28;20063;-58
2021/01/11 21:18:30;;;;;;;12.85;4.85;;;17.50;53.30;;;;;;10467331;28;20737;-57
2021/01/11 21:23:32;;;;;;;18.00;5.93;;;17.50;53.20;;;;;;10465467;28;20152;-57
2021/01/11 21:28:35;;;;;;;15.60;5.45;;;17.50;53.20;;;;;;10467816;28;20041;-57
2021/01/11 21:33:36;;;;;;;14.13;4.32;;;17.50;53.10;;;;;;10469247;28;20045;-57
2021/01/11 21:38:37;;;;;;;10.93;4.47;;;17.50;53.10;;;;;;10465474;28;20071;-59
2021/01/11 21:43:39;;;;;;;13.07;4.63;;;17.50;53.10;;;;;;10465236;28;20476;-58
2021/01/11 21:48:45;;;;;;;15.68;5.15;;;17.50;53.10;;;;;;10468891;28;20053;-55
2021/01/11 21:53:46;;;;;;;10.93;4.88;;;17.50;53.10;;;;;;10464254;28;20055;-55
2021/01/11 21:58:49;;;;;;;16.02;4.63;;;17.50;53.20;;;;;;10464284;28;20139;-58
2021/01/11 22:03:50;;;;;;;16.25;4.93;;;17.50;53.20;;;;;;10463050;28;20088;-54
2021/01/11 22:08:52;;;;;;;16.23;6.22;;;17.50;53.30;;;;;;10465885;28;21077;-56
2021/01/11 22:13:54;;;;;;;18.02;6.13;;;17.50;53.30;;;;;;10469739;28;20049;-58
2021/01/11 22:18:55;;;;;;;16.52;5.65;;;17.50;53.40;;;;;;10469096;28;20051;-56
2021/01/11 22:23:57;;;;;;;15.10;6.25;;;17.40;53.50;;;;;;10468535;28;20083;-58
2021/01/11 22:28:59;;;;;;;15.15;5.68;;;17.40;53.60;;;;;;10465197;28;20056;-58
2021/01/11 22:34:00;;;;;;;18.77;7.20;;;17.40;53.70;;;;;;10467475;28;20048;-56
2021/01/11 22:39:02;;;;;;;14.82;6.40;;;17.40;53.70;;;;;;10467356;28;20063;-56
2021/01/11 22:44:04;;;;;;;13.03;5.47;;;17.40;53.70;;;;;;10458606;28;20179;-54
2021/01/11 22:49:06;;;;;;;13.95;4.97;;;17.30;53.80;;;;;;10462780;28;20496;-58
2021/01/11 22:54:07;;;;;;;19.77;5.47;;;17.30;54.40;;;;;;10465642;28;20067;-54
2021/01/11 22:59:10;;;;;;;20.85;5.38;;;17.30;53.90;;;;;;10465976;28;20048;-57
2021/01/11 23:04:11;;;;;;;19.35;6.57;;;17.30;53.90;;;;;;10463654;28;20428;-53
2021/01/11 23:09:12;;;;;;;15.38;6.25;;;17.30;54.00;;;;;;10464291;28;20048;-58
2021/01/11 23:14:15;;;;;;;14.38;6.03;;;17.30;54.00;;;;;;10466434;28;20101;-58
2021/01/11 23:19:16;;;;;;;14.07;5.05;;;17.30;54.30;;;;;;10466838;28;20416;-57
2021/01/11 23:24:17;;;;;;;18.33;6.75;;;17.20;54.20;;;;;;10463880;28;20141;-55
2021/01/11 23:29:20;;;;;;;13.73;5.10;;;17.20;54.20;;;;;;10466863;28;20048;-58
2021/01/11 23:34:21;;;;;;;12.85;5.93;;;17.20;54.20;;;;;;10462031;28;20044;-55
2021/01/11 23:39:22;;;;;;;12.65;5.72;;;17.20;54.20;;;;;;10462814;28;20049;-56
2021/01/11 23:44:25;;;;;;;13.93;5.00;;;17.20;54.30;;;;;;10462018;28;20392;-58
2021/01/11 23:49:26;;;;;;;14.40;5.65;;;17.20;54.30;;;;;;10459218;28;20576;-56
2021/01/11 23:54:27;;;;;;;12.60;5.20;;;17.20;54.40;;;;;;10457578;28;20379;-59
2021/01/11 23:59:29;;;;;;;12.75;5.10;;;17.20;54.50;;;;;;10459594;28;20052;-56
